Aviation Digital Data Service (ADDS)

Output produced by METARs form (1756 UTC 21 September 2019)
found at http://aviationweather.gov/metar/data/
 
KLCH 211737Z 2118/2218 13010KT P6SM SCT035 BKN050 
     FM220200 12006KT P6SM SCT250 
     FM221400 12010KT P6SM FEW025